Time;durP1;ratioP1;P1;durP2;ratioP2;P2;SDS_P1;SDS_P2;PMS_P1;PMS_P2;Temp;Humidity;BMP_temperature;BMP_pressure;BME280_temperature;BME280_humidity;BME280_pressure;Samples;Min_cycle;Max_cycle;Signal;HPM_P1;HPM_P2
2022/03/21 00:01:34;;;;;;;62.43;39.67;;;;;;;;;;4972093;28;20065;-68
2022/03/21 00:03:59;;;;;;;59.77;41.23;;;2.10;99.90;;;;;;4972400;28;20051;-68
2022/03/21 00:06:25;;;;;;;71.70;44.90;;;2.10;99.90;;;;;;4965825;28;20134;-68
2022/03/21 00:08:51;;;;;;;59.90;42.83;;;;;;;;;;4953096;28;20038;-68
2022/03/21 00:11:17;;;;;;;67.80;42.77;;;2.10;99.90;;;;;;4952724;29;20063;-68
2022/03/21 00:13:42;;;;;;;60.57;42.93;;;2.50;99.90;;;;;;4963326;28;20400;-68
2022/03/21 00:16:08;;;;;;;62.30;41.23;;;2.00;99.90;;;;;;4972132;28;20047;-68
2022/03/21 00:18:34;;;;;;;65.57;43.80;;;2.10;99.90;;;;;;4972209;28;20031;-68
2022/03/21 00:21:00;;;;;;;63.27;40.63;;;;;;;;;;4971870;28;20031;-68
2022/03/21 00:23:26;;;;;;;57.63;40.47;;;2.10;99.90;;;;;;4971708;28;20034;-69
2022/03/21 00:25:52;;;;;;;58.90;41.07;;;2.10;99.90;;;;;;4972279;28;20038;-68
2022/03/21 00:28:18;;;;;;;66.20;41.47;;;2.00;99.90;;;;;;4971760;28;20039;-68
2022/03/21 00:30:44;;;;;;;63.57;42.53;;;2.30;99.90;;;;;;4971243;28;20397;-68
2022/03/21 00:33:11;;;;;;;63.50;43.40;;;2.10;99.90;;;;;;4963851;28;20025;-68
2022/03/21 00:35:37;;;;;;;66.23;42.17;;;2.10;99.90;;;;;;4952358;28;20034;-68
2022/03/21 00:38:04;;;;;;;62.80;43.47;;;2.10;99.90;;;;;;4952658;28;20054;-68
2022/03/21 00:40:32;;;;;;;60.17;39.33;;;2.10;99.90;;;;;;4952737;28;20045;-68
2022/03/21 00:42:58;;;;;;;64.00;42.67;;;2.00;99.90;;;;;;4952543;29;20036;-68
2022/03/21 00:45:24;;;;;;;61.57;43.87;;;;;;;;;;4952642;28;20035;-69
2022/03/21 00:47:51;;;;;;;64.40;42.80;;;2.00;99.90;;;;;;4952319;29;20034;-67
2022/03/21 00:50:18;;;;;;;62.60;42.23;;;1.90;99.90;;;;;;4951981;28;20042;-68
2022/03/21 00:52:47;;;;;;;59.43;41.37;;;1.70;99.90;;;;;;4952781;28;20365;-68
2022/03/21 00:55:14;;;;;;;66.17;41.80;;;1.70;99.90;;;;;;4952291;28;20031;-68
2022/03/21 00:57:40;;;;;;;67.00;40.67;;;1.60;99.90;;;;;;4959403;28;20039;-68
2022/03/21 01:00:09;;;;;;;64.47;40.43;;;1.60;99.90;;;;;;4971631;28;20030;-68
2022/03/21 01:02:36;;;;;;;62.87;40.40;;;1.50;99.90;;;;;;4971533;28;20034;-68
2022/03/21 01:05:02;;;;;;;62.00;40.33;;;1.60;99.90;;;;;;4971126;28;20037;-68
2022/03/21 01:07:28;;;;;;;58.80;39.73;;;;;;;;;;4971504;28;20117;-68
2022/03/21 01:09:53;;;;;;;72.53;44.63;;;1.60;99.90;;;;;;4971281;28;20086;-68
2022/03/21 01:12:19;;;;;;;57.53;41.33;;;;;;;;;;4971423;28;20035;-68
2022/03/21 01:14:45;;;;;;;67.27;45.40;;;1.50;99.90;;;;;;4971367;28;20102;-68
2022/03/21 01:17:10;;;;;;;64.10;43.30;;;1.60;99.90;;;;;;4971331;28;20063;-68
2022/03/21 01:19:36;;;;;;;63.87;43.30;;;1.60;99.90;;;;;;4970911;28;20031;-68
2022/03/21 01:22:02;;;;;;;61.90;41.93;;;;;;;;;;4971271;28;20223;-68
2022/03/21 01:24:27;;;;;;;60.67;42.03;;;1.80;99.90;;;;;;4971391;28;20456;-69
2022/03/21 01:26:53;;;;;;;63.07;42.53;;;1.90;99.90;;;;;;4968031;28;20082;-68
2022/03/21 01:29:19;;;;;;;60.57;41.20;;;;;;;;;;4951905;29;20384;-68
2022/03/21 01:31:44;;;;;;;61.20;41.53;;;1.80;99.90;;;;;;4952186;29;20389;-69
2022/03/21 01:34:10;;;;;;;64.80;43.37;;;1.70;99.90;;;;;;4951390;29;20031;-68
2022/03/21 01:36:35;;;;;;;61.93;39.67;;;1.70;99.90;;;;;;4951871;29;20035;-68
2022/03/21 01:39:01;;;;;;;64.57;43.57;;;1.40;99.90;;;;;;4952298;29;20056;-69
2022/03/21 01:41:26;;;;;;;67.53;41.63;;;1.40;99.90;;;;;;4951885;29;20031;-68
2022/03/21 01:44:03;;;;;;;66.60;41.27;;;1.40;99.90;;;;;;4966456;28;20031;-68
2022/03/21 01:46:29;;;;;;;70.57;44.03;;;1.00;99.90;;;;;;4951410;28;20078;-68
2022/03/21 01:48:56;;;;;;;76.20;49.57;;;1.50;99.90;;;;;;4951687;28;20421;-68
2022/03/21 01:51:22;;;;;;;66.40;45.57;;;1.50;99.90;;;;;;4952005;28;20044;-68
2022/03/21 01:56:33;;;;;;;71.80;45.10;;;1.70;99.90;;;;;;4951593;29;20050;-68
2022/03/21 01:59:00;;;;;;;69.63;45.27;;;1.60;99.90;;;;;;4951703;28;20106;-68
2022/03/21 02:01:25;;;;;;;56.70;37.80;;;1.70;99.90;;;;;;4951334;28;20098;-68
2022/03/21 02:03:51;;;;;;;63.03;41.80;;;;;;;;;;4953967;28;20031;-68
2022/03/21 02:06:17;;;;;;;73.97;44.73;;;1.80;99.90;;;;;;4951682;29;20020;-68
2022/03/21 02:08:44;;;;;;;63.37;44.30;;;1.30;99.90;;;;;;4951869;29;20036;-68
2022/03/21 02:11:10;;;;;;;62.03;42.20;;;1.50;99.90;;;;;;4951266;28;20052;-68
2022/03/21 02:13:36;;;;;;;68.43;44.27;;;1.60;99.90;;;;;;4952774;28;20039;-68
2022/03/21 02:16:03;;;;;;;65.83;42.63;;;1.30;99.90;;;;;;4951022;28;20075;-68
2022/03/21 02:18:30;;;;;;;59.67;40.63;;;1.50;99.90;;;;;;4951544;28;20035;-68
2022/03/21 02:20:59;;;;;;;69.40;44.07;;;1.40;99.90;;;;;;4952401;28;20373;-68
2022/03/21 02:23:46;;;;;;;67.70;42.30;;;1.40;99.90;;;;;;4951465;28;20477;-68
2022/03/21 02:26:13;;;;;;;69.20;46.63;;;1.30;99.90;;;;;;4951553;28;20037;-68
2022/03/21 02:28:40;;;;;;;74.20;47.80;;;1.50;99.90;;;;;;4951413;28;20062;-68
2022/03/21 02:31:06;;;;;;;87.50;53.50;;;1.60;99.90;;;;;;4950983;28;20036;-69
2022/03/21 02:33:32;;;;;;;79.20;50.00;;;1.70;99.90;;;;;;4951435;29;20098;-68
2022/03/21 02:35:59;;;;;;;66.33;42.47;;;1.80;99.90;;;;;;4951213;29;20230;-68
2022/03/21 02:38:25;;;;;;;68.40;46.07;;;1.80;99.90;;;;;;4951582;28;20047;-68
2022/03/21 02:40:51;;;;;;;69.30;45.67;;;1.80;99.90;;;;;;4951498;28;20097;-68
2022/03/21 02:43:16;;;;;;;70.30;43.10;;;1.70;99.90;;;;;;4956089;28;20019;-68
2022/03/21 02:45:42;;;;;;;59.77;39.13;;;1.60;99.90;;;;;;4971465;28;20085;-69
2022/03/21 02:48:08;;;;;;;60.40;38.50;;;1.50;99.90;;;;;;4974140;28;20031;-69
2022/03/21 02:50:56;;;;;;;73.83;47.20;;;1.60;99.90;;;;;;4973926;28;20383;-68
2022/03/21 02:53:22;;;;;;;71.03;44.17;;;1.60;99.90;;;;;;4974012;28;20031;-68
2022/03/21 02:55:54;;;;;;;71.83;45.80;;;1.60;99.90;;;;;;4974017;28;20031;-68
2022/03/21 02:58:19;;;;;;;66.17;41.67;;;1.50;99.90;;;;;;4969711;28;20015;-68
2022/03/21 03:00:45;;;;;;;60.93;41.93;;;1.40;99.90;;;;;;4954307;29;20031;-69
2022/03/21 03:03:10;;;;;;;63.13;40.60;;;1.50;99.90;;;;;;4954347;29;20365;-68
2022/03/21 03:05:36;;;;;;;67.87;41.40;;;1.50;99.90;;;;;;4954557;29;20062;-68
2022/03/21 03:08:03;;;;;;;59.83;38.30;;;;;;;;;;4954214;29;20059;-68
2022/03/21 03:10:29;;;;;;;62.93;40.63;;;;;;;;;;4954222;28;20047;-68
2022/03/21 03:12:55;;;;;;;63.87;39.43;;;1.40;99.90;;;;;;4955554;28;20102;-68
2022/03/21 03:15:20;;;;;;;61.23;39.30;;;1.30;99.90;;;;;;4967158;28;20043;-69
2022/03/21 03:17:46;;;;;;;64.03;38.90;;;;;;;;;;4954333;29;20036;-68
2022/03/21 03:20:12;;;;;;;53.93;35.23;;;1.40;99.90;;;;;;4954143;29;20035;-68
2022/03/21 03:22:39;;;;;;;63.17;39.10;;;1.00;99.90;;;;;;4952871;29;20039;-68
2022/03/21 03:25:05;;;;;;;62.07;40.43;;;;;;;;;;4953954;28;20023;-68
2022/03/21 03:27:31;;;;;;;58.93;39.27;;;1.30;99.90;;;;;;4954034;29;20519;-68
2022/03/21 03:29:58;;;;;;;61.73;40.27;;;1.20;99.90;;;;;;4953407;28;20031;-68
2022/03/21 03:32:24;;;;;;;56.37;35.93;;;0.90;99.90;;;;;;4973108;28;20105;-68
2022/03/21 03:34:50;;;;;;;59.07;37.10;;;;;;;;;;4973066;28;20027;-68
2022/03/21 03:37:16;;;;;;;54.17;35.80;;;1.20;99.90;;;;;;4973177;28;20038;-68
2022/03/21 03:39:42;;;;;;;60.53;37.70;;;1.10;99.90;;;;;;4973477;28;20039;-69
2022/03/21 03:42:08;;;;;;;60.27;39.10;;;1.10;99.90;;;;;;4972964;28;20034;-71
2022/03/21 03:44:34;;;;;;;60.67;38.27;;;1.10;99.90;;;;;;4956554;28;20049;-68
2022/03/21 03:46:59;;;;;;;59.47;37.70;;;1.20;99.90;;;;;;4953594;28;20431;-68
2022/03/21 03:49:25;;;;;;;57.13;35.97;;;1.10;99.90;;;;;;4953611;29;20114;-68
2022/03/21 03:51:51;;;;;;;56.07;35.93;;;;;;;;;;4953644;29;20027;-68
2022/03/21 03:54:16;;;;;;;62.23;35.30;;;1.10;99.90;;;;;;4953760;29;20054;-69
2022/03/21 03:56:42;;;;;;;58.63;38.57;;;;;;;;;;4952947;28;20039;-68
2022/03/21 03:59:08;;;;;;;57.23;35.80;;;1.40;99.90;;;;;;4962967;28;20035;-68
2022/03/21 04:01:34;;;;;;;62.67;38.83;;;;;;;;;;4972685;28;20035;-68
2022/03/21 04:04:00;;;;;;;58.13;37.40;;;1.50;99.90;;;;;;4972852;28;20023;-68
2022/03/21 04:06:27;;;;;;;61.77;38.37;;;;;;;;;;4972844;28;20384;-68
2022/03/21 04:08:52;;;;;;;58.70;37.10;;;1.20;99.90;;;;;;4972591;28;20034;-68
2022/03/21 04:11:19;;;;;;;62.23;38.37;;;1.20;99.90;;;;;;4972373;28;20046;-68
2022/03/21 04:13:46;;;;;;;62.23;41.33;;;1.20;99.90;;;;;;4964156;28;20090;-68
2022/03/21 04:16:12;;;;;;;61.93;39.53;;;1.20;99.90;;;;;;4952731;28;20043;-69
2022/03/21 04:18:38;;;;;;;60.37;40.57;;;;;;;;;;4953484;28;20043;-68
2022/03/21 04:21:04;;;;;;;62.70;39.97;;;1.50;99.90;;;;;;4966898;28;20042;-68
2022/03/21 04:23:30;;;;;;;60.20;37.70;;;1.50;99.90;;;;;;4972024;28;20058;-68
2022/03/21 04:25:56;;;;;;;52.13;35.43;;;;;;;;;;4972217;28;20413;-69
2022/03/21 04:28:22;;;;;;;60.37;37.73;;;1.30;99.90;;;;;;4972125;28;20033;-68
2022/03/21 04:30:48;;;;;;;57.77;35.80;;;;;;;;;;4966111;28;20031;-68
2022/03/21 04:33:14;;;;;;;52.90;34.20;;;;;;;;;;4962947;28;20026;-68
2022/03/21 04:35:41;;;;;;;49.70;33.63;;;0.90;99.90;;;;;;4972042;28;20039;-68
2022/03/21 04:38:13;;;;;;;52.97;34.10;;;0.90;99.90;;;;;;4956341;28;20401;-68
2022/03/21 04:40:40;;;;;;;54.93;34.10;;;0.70;99.90;;;;;;4971405;28;20066;-68
2022/03/21 04:43:07;;;;;;;50.03;32.77;;;0.60;99.90;;;;;;4971931;28;20399;-68
2022/03/21 04:45:33;;;;;;;52.00;32.50;;;0.20;99.90;;;;;;4972046;28;20026;-68
2022/03/21 04:47:58;;;;;;;50.07;33.43;;;0.50;99.90;;;;;;4971798;28;20042;-68
2022/03/21 04:50:24;;;;;;;53.60;31.93;;;0.40;99.90;;;;;;4971193;28;20420;-68
2022/03/21 04:52:49;;;;;;;54.63;35.30;;;0.40;99.90;;;;;;4971735;28;20023;-68
2022/03/21 04:55:15;;;;;;;46.63;31.90;;;;;;;;;;4971412;28;20157;-68
2022/03/21 04:57:41;;;;;;;50.07;33.73;;;0.50;99.90;;;;;;4972049;28;20026;-68
2022/03/21 05:00:08;;;;;;;55.07;33.93;;;0.50;99.90;;;;;;4971738;28;20054;-68
2022/03/21 05:02:34;;;;;;;58.23;35.13;;;0.60;99.90;;;;;;4971813;28;20468;-68
2022/03/21 05:05:00;;;;;;;56.17;34.87;;;;;;;;;;4965656;28;20059;-68
2022/03/21 05:07:25;;;;;;;53.37;33.47;;;;;;;;;;4952190;29;20114;-68
2022/03/21 05:09:51;;;;;;;51.17;33.67;;;0.50;99.90;;;;;;4951203;28;20130;-68
2022/03/21 05:12:17;;;;;;;51.00;34.17;;;0.50;99.90;;;;;;4952645;28;20058;-68
2022/03/21 05:14:43;;;;;;;45.87;28.30;;;;;;;;;;4971463;28;20066;-68
2022/03/21 05:17:11;;;;;;;58.93;35.07;;;0.70;99.90;;;;;;4971029;28;20055;-68
2022/03/21 05:19:37;;;;;;;61.50;37.47;;;0.70;99.90;;;;;;4970853;28;20031;-68
2022/03/21 05:22:06;;;;;;;57.33;35.73;;;0.80;99.90;;;;;;4971073;28;20081;-68
2022/03/21 05:32:44;;;;;;;51.42;31.20;;;0.40;99.90;;;;;;4971499;28;20073;-68
2022/03/21 05:37:55;;;;;;;46.00;29.27;;;0.30;99.90;;;;;;4970355;28;20571;-68
2022/03/21 05:40:34;;;;;;;52.60;30.53;;;0.30;99.90;;;;;;4969145;28;20098;-68
2022/03/21 05:43:02;;;;;;;49.13;30.13;;;0.20;99.90;;;;;;4958446;28;20023;-68
2022/03/21 05:45:28;;;;;;;53.43;30.53;;;;;;;;;;4951754;29;20034;-68
2022/03/21 05:50:39;;;;;;;48.70;30.37;;;0.20;99.90;;;;;;4952142;28;20125;-68
2022/03/21 05:53:08;;;;;;;50.13;27.37;;;0.30;99.90;;;;;;4963654;28;20027;-69
2022/03/21 05:55:34;;;;;;;47.40;31.13;;;0.20;99.90;;;;;;4969014;28;20429;-68
2022/03/21 05:58:00;;;;;;;52.57;30.10;;;0.30;99.90;;;;;;4970318;28;20030;-68
2022/03/21 06:00:26;;;;;;;52.40;30.43;;;0.20;99.90;;;;;;4970681;28;20365;-68
2022/03/21 06:02:53;;;;;;;47.37;30.73;;;0.30;99.90;;;;;;4969691;28;20151;-68
2022/03/21 06:05:20;;;;;;;49.10;31.53;;;0.50;99.90;;;;;;4970528;28;20023;-67
2022/03/21 06:07:46;;;;;;;42.27;27.20;;;0.30;99.90;;;;;;4969504;28;20086;-67
2022/03/21 06:10:12;;;;;;;41.57;26.40;;;0.30;99.90;;;;;;4962894;28;20390;-67
2022/03/21 06:12:39;;;;;;;46.83;30.73;;;0.40;99.90;;;;;;4980813;28;20034;-67
2022/03/21 06:15:05;;;;;;;47.63;30.53;;;0.60;99.90;;;;;;4988044;28;20026;-67
2022/03/21 06:17:36;;;;;;;49.10;30.47;;;0.50;99.90;;;;;;4970895;28;20392;-67
2022/03/21 06:20:02;;;;;;;48.77;30.20;;;0.90;99.90;;;;;;4970856;28;20057;-67
2022/03/21 06:22:27;;;;;;;48.73;29.90;;;0.60;99.90;;;;;;4974166;28;20046;-67
2022/03/21 06:24:53;;;;;;;45.97;30.13;;;0.80;99.90;;;;;;4974414;28;20022;-67
2022/03/21 06:27:19;;;;;;;47.73;31.80;;;;;;;;;;4974394;28;20018;-66
2022/03/21 06:29:44;;;;;;;51.60;30.30;;;1.10;99.90;;;;;;4974911;28;20037;-67
2022/03/21 06:32:10;;;;;;;45.47;30.00;;;;;;;;;;4974406;28;20073;-66
2022/03/21 06:34:36;;;;;;;57.47;31.50;;;;;;;;;;4974215;28;20026;-67
2022/03/21 06:37:02;;;;;;;59.67;36.00;;;;;;;;;;4973671;28;20042;-66
2022/03/21 06:39:28;;;;;;;57.83;36.13;;;1.40;99.90;;;;;;4974082;28;20518;-67
2022/03/21 06:41:54;;;;;;;56.23;35.10;;;1.70;99.90;;;;;;4973868;28;20039;-67
2022/03/21 06:44:20;;;;;;;46.40;30.07;;;1.60;99.90;;;;;;4974292;28;20023;-67
2022/03/21 06:46:46;;;;;;;39.10;25.47;;;1.60;99.90;;;;;;4967137;28;20031;-67
2022/03/21 06:49:11;;;;;;;53.23;35.17;;;2.10;99.90;;;;;;4954814;28;20094;-67
2022/03/21 06:51:38;;;;;;;49.00;30.97;;;;;;;;;;4954264;29;20039;-67
2022/03/21 06:54:03;;;;;;;48.37;33.63;;;2.40;99.90;;;;;;4954695;28;20038;-67
2022/03/21 06:56:29;;;;;;;58.33;37.33;;;;;;;;;;4955424;28;20116;-67
2022/03/21 06:58:55;;;;;;;55.87;35.07;;;2.40;99.90;;;;;;4954611;29;20058;-67
2022/03/21 07:01:20;;;;;;;72.60;43.20;;;2.70;99.90;;;;;;4954506;29;20056;-67
2022/03/21 07:03:45;;;;;;;66.17;39.47;;;2.80;99.90;;;;;;4954709;29;20026;-67
2022/03/21 07:06:12;;;;;;;67.30;37.47;;;3.00;99.90;;;;;;4957604;28;20050;-67
2022/03/21 07:08:38;;;;;;;46.53;29.50;;;3.00;99.90;;;;;;4973700;28;20023;-67
2022/03/21 07:11:04;;;;;;;52.07;34.00;;;3.10;99.90;;;;;;4973336;28;20050;-67
2022/03/21 07:13:30;;;;;;;57.63;37.93;;;3.20;99.90;;;;;;4973613;28;20043;-67
2022/03/21 07:15:56;;;;;;;60.00;36.27;;;3.20;99.90;;;;;;4972186;28;20078;-67
2022/03/21 07:18:22;;;;;;;58.90;36.97;;;3.50;99.90;;;;;;4973484;28;20042;-67
2022/03/21 07:20:48;;;;;;;53.30;33.40;;;;;;;;;;4971544;28;20027;-67
2022/03/21 07:23:13;;;;;;;50.77;33.63;;;3.50;99.90;;;;;;4973602;28;20022;-69
2022/03/21 07:25:39;;;;;;;49.03;33.47;;;3.70;99.90;;;;;;4973224;28;20038;-68
2022/03/21 07:28:04;;;;;;;61.23;37.83;;;3.60;99.90;;;;;;4973255;28;20050;-68
2022/03/21 07:30:30;;;;;;;63.27;38.20;;;;;;;;;;4973507;28;20023;-68
2022/03/21 07:32:59;;;;;;;65.50;41.10;;;;;;;;;;4971759;28;20031;-68
2022/03/21 07:35:24;;;;;;;59.10;39.13;;;4.20;99.90;;;;;;4972733;28;20070;-68
2022/03/21 07:37:53;;;;;;;54.80;34.73;;;4.10;99.90;;;;;;4971396;28;20054;-68
2022/03/21 07:40:20;;;;;;;50.60;32.47;;;4.20;99.90;;;;;;4973123;28;20025;-68
2022/03/21 07:42:47;;;;;;;56.43;37.47;;;4.40;99.90;;;;;;4973317;28;20038;-68
2022/03/21 07:47:58;;;;;;;59.57;37.10;;;4.60;99.90;;;;;;4953906;29;20503;-70
2022/03/21 07:50:24;;;;;;;58.27;38.23;;;4.60;99.90;;;;;;4953258;28;20067;-69
2022/03/21 07:52:55;;;;;;;47.10;32.53;;;4.80;99.90;;;;;;4953961;28;20027;-69
2022/03/21 07:55:21;;;;;;;57.93;35.50;;;4.90;99.90;;;;;;4953444;28;20027;-69
2022/03/21 07:57:46;;;;;;;62.30;37.83;;;5.10;99.90;;;;;;4953719;28;20123;-69
2022/03/21 08:00:13;;;;;;;57.60;35.60;;;5.20;99.90;;;;;;4961255;28;20141;-69
2022/03/21 08:02:42;;;;;;;54.63;35.67;;;5.30;99.90;;;;;;4972641;28;20490;-70
2022/03/21 08:05:08;;;;;;;56.57;37.47;;;5.40;99.90;;;;;;4971911;28;20031;-69
2022/03/21 08:07:37;;;;;;;58.43;37.17;;;;;;;;;;4972556;28;20844;-69
2022/03/21 08:10:04;;;;;;;52.13;34.50;;;5.70;99.90;;;;;;4972181;28;20051;-70
2022/03/21 08:12:29;;;;;;;50.97;34.83;;;6.00;99.90;;;;;;4964281;28;20042;-68
2022/03/21 08:14:56;;;;;;;51.63;34.17;;;6.20;99.90;;;;;;4953130;29;20535;-69
2022/03/21 08:17:22;;;;;;;45.90;32.33;;;6.10;99.90;;;;;;4953190;28;20094;-69
2022/03/21 08:19:48;;;;;;;49.30;33.67;;;;;;;;;;4971279;28;20030;-69
2022/03/21 08:22:15;;;;;;;56.13;35.67;;;6.40;99.90;;;;;;4972226;28;20034;-69
2022/03/21 08:24:41;;;;;;;46.20;31.53;;;6.80;99.90;;;;;;4971899;28;20480;-68
2022/03/21 08:27:06;;;;;;;43.47;30.10;;;6.80;99.90;;;;;;4970339;28;20037;-67
2022/03/21 08:29:32;;;;;;;47.10;31.23;;;6.90;99.90;;;;;;4954440;28;20039;-68
2022/03/21 08:31:58;;;;;;;40.20;25.00;;;6.90;99.90;;;;;;4954783;28;20027;-67
2022/03/21 08:34:24;;;;;;;36.10;25.40;;;7.10;99.90;;;;;;4951311;28;20041;-67
2022/03/21 08:36:50;;;;;;;37.03;26.20;;;7.40;99.90;;;;;;4952126;28;20467;-67
2022/03/21 08:39:16;;;;;;;36.20;25.33;;;;;;;;;;4955997;28;20105;-68
2022/03/21 08:41:41;;;;;;;39.83;23.37;;;7.30;99.90;;;;;;4969620;28;20113;-67
2022/03/21 08:44:07;;;;;;;35.47;23.00;;;7.50;99.90;;;;;;4951794;28;20562;-67
2022/03/21 08:46:33;;;;;;;35.50;23.87;;;7.70;99.90;;;;;;4952473;29;20440;-68
2022/03/21 08:51:43;;;;;;;34.10;24.90;;;7.80;99.90;;;;;;4952574;28;20106;-68
2022/03/21 08:54:10;;;;;;;33.17;23.50;;;7.80;99.90;;;;;;4980340;28;20533;-68
2022/03/21 08:56:36;;;;;;;29.73;21.80;;;8.00;99.90;;;;;;4952510;28;20154;-68
2022/03/21 08:59:01;;;;;;;30.77;19.73;;;8.30;99.90;;;;;;4963664;28;20106;-68
2022/03/21 09:01:27;;;;;;;31.13;18.60;;;8.30;99.90;;;;;;4963665;28;20031;-67
2022/03/21 09:03:54;;;;;;;29.60;19.13;;;8.50;99.90;;;;;;4971408;28;20055;-67
2022/03/21 09:06:22;;;;;;;27.80;18.13;;;8.30;99.90;;;;;;4971370;28;20039;-68
2022/03/21 09:08:50;;;;;;;25.50;17.47;;;8.40;99.90;;;;;;4971671;28;20030;-68
2022/03/21 09:11:17;;;;;;;31.57;20.80;;;8.30;99.90;;;;;;4971062;28;20055;-67
2022/03/21 09:13:44;;;;;;;24.13;18.07;;;8.50;99.90;;;;;;4969691;28;20026;-68
2022/03/21 09:16:11;;;;;;;26.33;17.90;;;8.50;99.90;;;;;;4969871;28;20380;-66
2022/03/21 09:18:36;;;;;;;26.93;19.10;;;;;;;;;;4970981;28;20019;-67
2022/03/21 09:21:02;;;;;;;28.70;18.90;;;8.70;99.90;;;;;;4968612;28;20027;-66
2022/03/21 09:23:27;;;;;;;30.90;21.93;;;8.70;99.90;;;;;;4971193;28;20027;-67
2022/03/21 09:25:53;;;;;;;28.90;20.33;;;8.50;99.90;;;;;;4969828;28;20391;-67
2022/03/21 09:28:18;;;;;;;29.20;20.13;;;9.00;99.90;;;;;;4971026;28;20074;-67
2022/03/21 09:30:44;;;;;;;26.83;20.00;;;9.20;99.90;;;;;;4969239;28;20396;-66
2022/03/21 09:33:09;;;;;;;28.60;20.23;;;9.10;99.90;;;;;;4971023;28;20027;-66
2022/03/21 09:35:37;;;;;;;31.60;20.47;;;9.30;99.90;;;;;;4971080;28;20396;-66
2022/03/21 09:38:03;;;;;;;32.33;21.80;;;9.40;99.90;;;;;;4971246;28;20066;-66
2022/03/21 09:40:28;;;;;;;29.67;21.53;;;9.30;99.90;;;;;;4970961;28;20109;-67
2022/03/21 09:42:54;;;;;;;28.17;19.87;;;9.50;99.90;;;;;;4958267;28;20089;-66
2022/03/21 09:45:20;;;;;;;25.50;17.80;;;;;;;;;;4951079;28;20027;-67
2022/03/21 09:50:35;;;;;;;28.83;21.33;;;10.20;99.90;;;;;;4951783;29;20118;-66
2022/03/21 09:53:05;;;;;;;26.47;18.33;;;9.80;99.90;;;;;;4951653;28;20488;-66
2022/03/21 09:55:31;;;;;;;26.43;18.20;;;9.90;99.90;;;;;;4954083;28;20122;-67
2022/03/21 09:57:57;;;;;;;23.93;16.67;;;10.40;99.90;;;;;;4956396;28;20119;-66
2022/03/21 10:00:25;;;;;;;24.70;17.93;;;;;;;;;;4959464;28;20041;-66
2022/03/21 10:02:50;;;;;;;29.90;19.67;;;10.10;99.90;;;;;;4974895;28;20034;-66
2022/03/21 10:05:32;;;;;;;28.90;20.47;;;10.20;99.90;;;;;;4973650;28;20038;-67
2022/03/21 10:08:25;;;;;;;27.43;19.97;;;10.30;99.90;;;;;;4974868;28;20119;-66
2022/03/21 10:11:02;;;;;;;30.00;19.27;;;10.50;99.90;;;;;;4973688;28;20122;-67
2022/03/21 10:13:30;;;;;;;26.40;17.90;;;10.30;99.90;;;;;;4959337;28;20123;-66
2022/03/21 10:16:11;;;;;;;22.97;18.67;;;10.50;99.90;;;;;;4954790;28;20028;-68
2022/03/21 10:18:39;;;;;;;26.93;18.87;;;10.50;99.90;;;;;;4954995;28;20035;-67
2022/03/21 10:21:13;;;;;;;32.57;20.17;;;10.70;98.90;;;;;;4955225;28;20019;-67
2022/03/21 10:23:40;;;;;;;32.47;23.10;;;10.90;99.90;;;;;;4956302;28;20032;-66
2022/03/21 10:26:27;;;;;;;29.13;19.70;;;10.80;98.40;;;;;;4953623;29;20024;-67
2022/03/21 10:28:55;;;;;;;26.90;20.13;;;10.80;99.90;;;;;;4954618;28;20034;-66
2022/03/21 10:31:56;;;;;;;28.20;20.90;;;11.00;99.90;;;;;;4955132;28;20062;-66
2022/03/21 10:34:29;;;;;;;26.70;20.13;;;11.00;99.00;;;;;;4937749;29;20039;-66
2022/03/21 10:36:58;;;;;;;29.80;21.30;;;11.10;99.90;;;;;;4947496;29;20051;-67
2022/03/21 10:39:24;;;;;;;34.87;22.27;;;11.40;99.90;;;;;;4933378;29;20111;-67
2022/03/21 10:42:01;;;;;;;32.17;21.43;;;11.20;99.90;;;;;;4934332;29;20244;-66
2022/03/21 10:44:27;;;;;;;27.87;21.17;;;11.40;99.90;;;;;;4949157;29;20095;-66
2022/03/21 10:46:55;;;;;;;26.33;18.80;;;11.50;99.90;;;;;;4952285;29;20027;-66
2022/03/21 10:49:33;;;;;;;29.87;19.80;;;11.40;98.10;;;;;;4952249;29;20135;-67
2022/03/21 10:51:59;;;;;;;25.93;18.53;;;11.50;99.90;;;;;;4951931;29;20054;-67
2022/03/21 10:54:40;;;;;;;24.70;19.47;;;11.50;98.70;;;;;;4940024;29;20046;-67
2022/03/21 10:57:26;;;;;;;27.60;18.93;;;11.50;99.90;;;;;;4949887;29;20444;-67
2022/03/21 11:00:10;;;;;;;30.17;21.10;;;11.50;99.90;;;;;;4950899;29;20027;-67
2022/03/21 11:02:36;;;;;;;;;;;11.50;97.90;;;;;;4952566;29;20581;-67
2022/03/21 11:05:04;;;;;;;28.43;19.23;;;11.60;99.90;;;;;;4936000;29;19953;-66
2022/03/21 11:07:30;;;;;;;30.97;21.53;;;11.60;99.90;;;;;;4949919;28;20038;-66
2022/03/21 11:09:56;;;;;;;29.80;21.13;;;;;;;;;;4971700;28;20055;-66
2022/03/21 11:12:22;;;;;;;29.67;20.23;;;11.80;96.80;;;;;;4972840;28;20027;-66
2022/03/21 11:14:48;;;;;;;28.57;20.07;;;;;;;;;;4992239;28;20050;-66
2022/03/21 11:17:15;;;;;;;26.00;19.87;;;13.70;96.50;;;;;;4993030;28;20031;-67
2022/03/21 11:19:42;;;;;;;29.98;20.40;;;12.20;96.30;;;;;;4993119;28;20035;-67
2022/03/21 11:22:10;;;;;;;31.77;20.60;;;;;;;;;;4993128;28;20510;-67
2022/03/21 11:24:38;;;;;;;27.27;19.80;;;12.40;97.00;;;;;;4968456;28;20041;-68
2022/03/21 11:27:20;;;;;;;24.77;18.98;;;12.10;99.90;;;;;;4952672;29;20034;-67
2022/03/21 11:30:15;;;;;;;26.53;19.60;;;12.40;99.90;;;;;;4953976;28;20023;-68
2022/03/21 11:32:40;;;;;;;21.58;16.58;;;;;;;;;;4954061;28;20023;-67
2022/03/21 11:35:23;;;;;;;26.40;18.27;;;12.30;99.90;;;;;;4953577;29;20054;-67
2022/03/21 11:37:50;;;;;;;29.63;20.23;;;;;;;;;;4963483;28;20046;-66
2022/03/21 11:40:36;;;;;;;25.85;19.15;;;12.50;94.20;;;;;;4970407;28;20530;-67
2022/03/21 11:43:17;;;;;;;27.20;18.90;;;12.50;99.90;;;;;;4963912;28;20106;-67
2022/03/21 11:45:47;;;;;;;25.17;18.55;;;12.50;98.50;;;;;;4973178;28;20081;-66
2022/03/21 11:48:18;;;;;;;30.38;21.80;;;12.80;93.60;;;;;;4969705;28;20508;-66
2022/03/21 11:50:45;;;;;;;29.33;21.02;;;12.60;99.90;;;;;;4972399;28;20025;-66
2022/03/21 11:53:13;;;;;;;25.98;20.33;;;13.00;99.90;;;;;;4972594;28;20085;-66
2022/03/21 11:55:44;;;;;;;27.50;20.48;;;13.60;92.90;;;;;;4961008;28;20051;-65
2022/03/21 11:58:22;;;;;;;22.52;17.95;;;13.10;99.90;;;;;;4970419;28;20042;-66
2022/03/21 12:01:07;;;;;;;25.58;19.52;;;13.10;95.80;;;;;;4972031;28;20023;-67
2022/03/21 12:03:33;;;;;;;25.60;19.85;;;13.20;99.90;;;;;;4971963;28;20026;-67
2022/03/21 12:06:19;;;;;;;29.67;18.17;;;13.00;99.90;;;;;;4972331;28;20395;-67
2022/03/21 12:08:48;;;;;;;26.30;19.75;;;13.30;99.90;;;;;;4972443;28;20031;-69
2022/03/21 12:11:38;;;;;;;25.80;20.40;;;14.50;92.70;;;;;;4971796;28;20488;-68
2022/03/21 12:14:19;;;;;;;26.95;21.17;;;13.60;99.90;;;;;;4972237;28;20022;-68
2022/03/21 12:17:05;;;;;;;29.08;19.55;;;13.10;99.90;;;;;;4972282;28;20031;-69
2022/03/21 12:19:57;;;;;;;28.27;20.45;;;13.40;99.90;;;;;;4966550;28;20126;-67
2022/03/21 12:22:28;;;;;;;27.85;19.80;;;13.40;99.90;;;;;;4972060;28;20404;-68
2022/03/21 12:25:08;;;;;;;23.80;19.15;;;13.40;99.80;;;;;;4971822;28;20055;-68
2022/03/21 12:28:17;;;;;;;23.30;18.30;;;13.20;99.60;;;;;;4971843;28;20468;-68
2022/03/21 12:30:48;;;;;;;28.83;19.83;;;13.70;99.70;;;;;;4971752;28;20027;-68
2022/03/21 12:33:13;;;;;;;24.88;18.67;;;13.90;99.40;;;;;;4971779;28;20491;-67
2022/03/21 12:35:43;;;;;;;28.90;20.02;;;13.60;99.30;;;;;;4970944;28;20035;-68
2022/03/21 12:38:39;;;;;;;26.33;19.50;;;13.70;99.40;;;;;;4971186;28;20558;-68
2022/03/21 12:41:08;;;;;;;29.38;19.77;;;13.70;95.10;;;;;;4950075;28;20038;-69
2022/03/21 12:43:39;;;;;;;29.30;21.00;;;13.60;91.40;;;;;;4971319;28;20030;-68
2022/03/21 12:46:06;;;;;;;27.35;22.00;;;13.80;99.00;;;;;;4986350;28;20030;-68
2022/03/21 12:48:33;;;;;;;25.48;20.67;;;14.00;98.80;;;;;;4961010;28;20039;-69
2022/03/21 12:50:59;;;;;;;29.85;22.65;;;14.00;98.70;;;;;;4966499;28;20093;-68
2022/03/21 12:53:45;;;;;;;32.72;23.05;;;13.90;98.60;;;;;;4971679;28;20030;-68
2022/03/21 12:56:13;;;;;;;33.50;20.25;;;13.90;98.80;;;;;;4967765;28;20831;-68
2022/03/21 12:58:45;;;;;;;28.88;21.83;;;14.30;98.80;;;;;;4971361;28;20031;-68
2022/03/21 13:01:11;;;;;;;29.20;21.08;;;14.10;99.40;;;;;;4971306;28;20460;-68
2022/03/21 13:03:36;;;;;;;34.83;23.42;;;14.50;98.80;;;;;;4970015;28;20042;-68
2022/03/21 13:11:32;;;;;;;26.70;19.65;;;14.10;98.60;;;;;;4970656;28;20053;-67
2022/03/21 13:14:04;;;;;;;23.08;19.63;;;14.30;92.00;;;;;;4970830;28;20034;-68
2022/03/21 13:16:38;;;;;;;26.48;21.95;;;14.30;98.70;;;;;;4971259;28;20074;-68
2022/03/21 13:19:06;;;;;;;26.88;22.77;;;14.50;98.90;;;;;;4970676;28;20019;-68
2022/03/21 13:21:35;;;;;;;27.65;21.80;;;14.90;98.60;;;;;;4971220;28;20066;-68
2022/03/21 13:24:00;;;;;;;29.38;22.92;;;14.50;98.30;;;;;;4970295;28;20534;-68